Thursday, November 23, 2017, 6:17 PM GMT
Back to Local

CYHZ, Halifax International Airport

Location: , , Canada Lat: 44.883
Local Time: 6:17 PM GMT (18:17 GMT) Lon: -63.5
Time Zone: GMT Elev: 475 ft

Show me the last for .
Show Decoded

2017-11-23 18:00 METAR CYHZ 231800Z 30013G21KT 15SM FEW022 FEW250 04/M02 A2974 RMK SC1CI1 SC TR
                 SLP074 =
2017-11-23 17:00 METAR CYHZ 231700Z 29014G21KT 15SM SCT022 03/M01 A2974 RMK SC4 SLP074 =
2017-11-23 16:00 METAR CYHZ 231600Z 29014G24KT 15SM BKN020 04/00 A2973 RMK SC5 SLP071 =
2017-11-23 15:00 METAR CYHZ 231500Z 29013G21KT 15SM BKN016 03/01 A2971 RMK SC7 SLP066 =
2017-11-23 14:00 METAR CYHZ 231400Z 29022G29KT 15SM BKN015 03/01 A2967 RMK SC7 SLP052 =
2017-11-23 13:00 METAR CYHZ 231300Z 30023G29KT 15SM OVC011 03/02 A2962 RMK SC8 SLP037 =
2017-11-23 12:00 METAR CYHZ 231200Z 30018G31KT 15SM OVC010 03/02 A2958 RMK SC8 PRESRR SLP020 =
2017-11-23 11:43 METAR CYHZ 231143Z 30025G33KT 15SM BKN016 03/02 A2956 RMK SC7 PRESRR SLP015 =
2017-11-23 11:00 METAR CYHZ 231100Z 28017G30KT 12SM SCT006 OVC010 03/02 A2952 RMK SF3SC5 PRESRR
                 SLP001 =
2017-11-23 10:00 METAR CYHZ 231000Z 28023G37KT 12SM -SHRA OVC010 03/03 A2945 RMK SF8 CVCTV CLD
                 EMBD CIG RAG PRESRR SLP978 =
2017-11-23 09:00 METAR CYHZ 230900Z 28023G32KT 10SM -SHRA OVC008 05/05 A2933 RMK SF8 CIG RAG
                 PRESRR SLP936 =
2017-11-23 08:41 METAR CYHZ 230841Z 29022G35KT 10SM OVC009 05/05 A2927 RMK SF8 PRESRR SLP917 =
2017-11-23 08:00 METAR CYHZ 230800Z 29032G41KT 2SM -SHRA BR OVC006 09/08 A2915 RMK FG7SF1 CIG RAG
                 PRESRR SLP875 DENSITY ALT 800FT =
2017-11-23 07:52 METAR CYHZ 230752Z 28027G36KT 1 1/2SM -SHRA BR OVC006 12/12 A2914 RMK FG7SF1
                 CVCTV CLD EMBD CIG RAG PRESRR SLP869 DENSITY ALT 1200FT =
2017-11-23 07:39 METAR CYHZ 230739Z 28019G25KT 1 1/2SM -DZ BR OVC003 12/12 A2911 RMK FG7ST1 WSHFT
                 0719 CIG RAG PRESRR SLP861 DENSITY ALT 1200FT =
2017-11-23 07:10 METAR CYHZ 230710Z 21014G21KT 1 1/2SM -DZ BR OVC003 14/14 A2906 RMK FG7ST1
                 SLP843 DENSITY ALT 1500FT =
2017-11-23 07:00 METAR CYHZ 230700Z 19018G24KT 1 1/2SM -RA BR OVC003 14/14 A2906 RMK FG7SC1
                 PRESFR SLP842 DENSITY ALT 1500FT =
2017-11-23 06:26 METAR CYHZ 230626Z 16015G23KT 130V190 1 1/2SM -RA BR OVC003 13/13 A2912 RMK
                 FG7NS1 PRESFR SLP861 DENSITY ALT 1300FT =
2017-11-23 06:00 METAR CYHZ 230600Z 11018G28KT 1 1/2SM RA BR OVC004 12/12 A2917 RMK FG7NS1 /R26/
                 CIG RAG PRESFR SLP881 DENSITY ALT 1200FT =
2017-11-23 05:00 METAR CYHZ 230500Z 15018G30KT 1 3/4SM RA BR OVC004 13/12 A2936 RMK FG6NS2 CIG
                 RAG PRESFR SLP943 DENSITY ALT 1000FT =
2017-11-23 04:04 METAR CYHZ 230404Z 15019G35KT 2SM RA BR OVC003 12/12 A2946 RMK FG6NS2 PRESFR
                 SLP980 DENSITY ALT 800FT =
2017-11-23 04:00 METAR CYHZ 230400Z 15021G31KT 2SM -RA BR OVC005 12/12 A2946 RMK FG6NS2 /R10/ CIG
                 RAG PRESFR SLP980 DENSITY ALT 800FT =
2017-11-23 03:11 METAR CYHZ 230311Z 15015G23KT 1 1/2SM -RA BR OVC005 12/12 A2954 RMK FG6NS2
                 PRESFR SLP008 DENSITY ALT 700FT =
2017-11-23 03:00 METAR CYHZ 230300Z 14017G24KT 2SM -RA BR BKN008 OVC019 12/12 A2957 RMK SF7NS1
                 PRESFR SLP016 DENSITY ALT 700FT =
2017-11-23 02:00 METAR CYHZ 230200Z 16018G25KT 8SM -RA OVC007 13/12 A2964 RMK NS8 CIG RAG PRESFR
                 SLP041 DENSITY ALT 700FT =
2017-11-23 01:41 METAR CYHZ 230141Z 17019G28KT 8SM -RA BKN009 OVC020 13/12 A2968 RMK SF6NS2
                 SLP053 DENSITY ALT 600FT =
2017-11-23 01:34 METAR CYHZ 230134Z 17016G24KT 8SM RA OVC006 13/12 A2968 RMK NS8 CIG RAG SLP055
                 DENSITY ALT 600FT =
2017-11-23 01:00 METAR CYHZ 230100Z 16015G27KT 8SM -RA SCT010 OVC030 13/13 A2970 RMK SF4SC4 CVCTV
                 CLD EMBD PRESFR SLP062 DENSITY ALT 600FT =
2017-11-23 00:00 METAR CYHZ 230000Z 15015G24KT 8SM -RA OVC008 13/12 A2976 RMK NS8 PRESFR SLP082
                 DENSITY ALT 600FT =
2017-11-22 23:28 METAR CYHZ 222328Z 16016G24KT 12SM BKN010 OVC025 13/12 A2980 RMK SF5SC3 SLP093
                 DENSITY ALT 500FT =
2017-11-22 23:06 METAR CYHZ 222306Z 16015G21KT 10SM -RA FEW010 BKN025 OVC060 13/12 A2982 RMK
                 SF2SC5SC1 CVCTV CLD EMBD SLP101 DENSITY ALT 500FT =
2017-11-22 23:00 METAR CYHZ 222300Z 15014G20KT 12SM FEW010 BKN025 OVC060 13/12 A2982 RMK
                 SF2SC5SC1 SLP103 DENSITY ALT 500FT =
2017-11-22 22:00 METAR CYHZ 222200Z 15010KT 12SM OVC025 12/12 A2988 RMK SC8 SLP121 =
2017-11-22 21:00 METAR CYHZ 222100Z 14010KT 15SM SCT035 OVC060 12/12 A2992 RMK SC4SC4 SLP135 =
2017-11-22 20:57 METAR CYHZ 222057Z 15010KT 15SM SCT038 BKN060 OVC160 12/12 A2992 RMK SC3SC2AC3
                 SLP136 =
2017-11-22 20:50 METAR CYHZ 222050Z 15008KT 5SM -RA SCT038 BKN060 OVC160 12/11 A2992 RMK
                 SC4SC2AC2 SLP137 =
2017-11-22 20:00 METAR CYHZ 222000Z 15007KT 15SM FEW020 BKN060 OVC120 13/11 A2995 RMK CF2SC4AC2
                 SLP145 =
2017-11-22 19:00 METAR CYHZ 221900Z 18009G18KT 15SM FEW015 SCT035 BKN080 BKN260 14/11 A2998 RMK
                 CF2SC2AC1CI1 SLP154 =

Support USWX by starting your Amazon purchase here.